»·PEaware :: N209K KSBP-KDLO

N209K :: KSBP-KDLO

FLIGHT INFORMATION

Flight Status: Arrived
Operator: Privately registered:
United States
More flights under this callsign
Pilot: Michael F. (10210)
Aircraft: CESSNA 182 SKYLANE
(C182)
More flights by this aircraft type
Origin: KSBP San Luis Co Regl
United States
Destination: KDLO Delano Mun
United States
More flights between these airports :: More routes between these airports
Route: AVE
File this flight plan on PilotEdge
Remarks:
Altitude:
(Current/Filed)
4,500ft
Speed:
(Current/Filed)
130kts
Departed: 29-Sep-16 05:01 PM
Arrived: 29-Sep-16 05:37 PM
Distance/Time
Traveled:
75nm/0:36
Distance/Time
To Go:
Arrived

Flight Plot

Page will automatically refresh every two minutes.


Map Options




Map Legend


Flown Route
Filed Route
Departure Airport
Arrival Airport
Navaid (VOR, NDB)
Fix

Horizontal Profiles

Position Reports

Time Latitude Longitude Heading Altitude Ground
Speed
29-Sep-16 16:48 35.238444 -120.638684 267 215ft 0kts
29-Sep-16 16:49 35.238444 -120.638688 267 215ft 0kts
29-Sep-16 16:50 35.238444 -120.638692 267 215ft 0kts
29-Sep-16 16:51 35.238444 -120.638695 267 215ft 0kts
29-Sep-16 16:52 35.238444 -120.638703 267 215ft 0kts
29-Sep-16 16:53 35.238443 -120.638708 267 215ft 0kts
29-Sep-16 16:54 35.236805 -120.637913 188 215ft 8kts
29-Sep-16 16:55 35.234920 -120.634876 124 215ft 17kts
29-Sep-16 16:56 35.233301 -120.632603 215 215ft 0kts
29-Sep-16 16:57 35.236543 -120.639678 307 330ft 78kts
29-Sep-16 16:58 35.254786 -120.646722 47 1218ft 96kts
29-Sep-16 16:59 35.268448 -120.619573 52 2189ft 91kts
29-Sep-16 17:00 35.282904 -120.592597 53 3175ft 96kts
29-Sep-16 17:01 35.298640 -120.566822 54 4219ft 101kts
29-Sep-16 17:02 35.316598 -120.536184 54 4908ft 123kts
29-Sep-16 17:03 35.337919 -120.500989 52 5480ft 144kts
29-Sep-16 17:04 35.363678 -120.458534 53 5494ft 155kts
29-Sep-16 17:05 35.388965 -120.415563 53 5493ft 155kts
29-Sep-16 17:06 35.414696 -120.372237 53 5496ft 156kts
29-Sep-16 17:07 35.440335 -120.328970 53 5498ft 158kts
29-Sep-16 17:08 35.466514 -120.284819 53 5487ft 154kts
29-Sep-16 17:09 35.491475 -120.243298 54 5498ft 154kts
29-Sep-16 17:10 35.517600 -120.199792 54 5491ft 153kts
29-Sep-16 17:11 35.542056 -120.158214 53 5499ft 151kts
29-Sep-16 17:12 35.566965 -120.116333 53 5493ft 149kts
29-Sep-16 17:13 35.590896 -120.074885 54 5495ft 148kts
29-Sep-16 17:14 35.614917 -120.033274 54 5483ft 149kts
29-Sep-16 17:15 35.639053 -119.991741 54 5480ft 149kts
29-Sep-16 17:16 35.653745 -119.945474 81 5486ft 147kts
29-Sep-16 17:17 35.658081 -119.894965 81 5457ft 149kts
29-Sep-16 17:18 35.666443 -119.845089 83 5453ft 148kts
29-Sep-16 17:19 35.672745 -119.794249 82 4995ft 149kts
29-Sep-16 17:20 35.679293 -119.744417 81 4383ft 145kts
29-Sep-16 17:21 35.685834 -119.695351 81 3785ft 144kts
29-Sep-16 17:22 35.691929 -119.646069 82 3491ft 145kts
29-Sep-16 17:23 35.697976 -119.596550 82 3502ft 147kts
29-Sep-16 17:24 35.704083 -119.546632 82 3501ft 147kts
29-Sep-16 17:25 35.710102 -119.496733 82 3499ft 147kts
29-Sep-16 17:26 35.716586 -119.447529 79 3558ft 137kts
29-Sep-16 17:27 35.723035 -119.404474 82 3233ft 123kts
29-Sep-16 17:28 35.729436 -119.361882 79 2789ft 124kts
29-Sep-16 17:29 35.735817 -119.320375 79 2312ft 120kts
29-Sep-16 17:30 35.749066 -119.284336 58 1806ft 98kts
29-Sep-16 17:31 35.761736 -119.258219 56 1224ft 74kts
29-Sep-16 17:32 35.754606 -119.240922 161 508ft 72kts
29-Sep-16 17:33 35.745078 -119.236567 259 317ft 8kts
29-Sep-16 17:34 35.745506 -119.238895 340 317ft 3kts
29-Sep-16 17:35 35.745567 -119.238921 339 317ft 0kts
29-Sep-16 17:36 35.745567 -119.238921 339 317ft 0kts
29-Sep-16 17:37 35.745567 -119.238921 339 317ft 0kts

Navigation Log

Ident Type
Flight plan parsing failed, navigation log unavailable